sensor_id;sensor_type;location;lat;lon;timestamp;pressure;altitude;pressure_sealevel;temperature;humidity
8280;BME280;8335;42.646;23.380;2023-02-17T00:01:20;142346.84;;;2.97;72.92
8280;BME280;8335;42.646;23.380;2023-02-17T00:03:47;142361.69;;;3.03;73.13
8280;BME280;8335;42.646;23.380;2023-02-17T00:06:15;142302.38;;;2.79;72.87
8280;BME280;8335;42.646;23.380;2023-02-17T00:08:42;142340.69;;;2.94;72.61
8280;BME280;8335;42.646;23.380;2023-02-17T00:11:09;142335.72;;;2.92;72.40
8280;BME280;8335;42.646;23.380;2023-02-17T00:13:36;142338.22;;;2.93;71.95
8280;BME280;8335;42.646;23.380;2023-02-17T00:16:07;142339.47;;;2.94;72.45
8280;BME280;8335;42.646;23.380;2023-02-17T00:18:34;142343.16;;;2.95;72.47
8280;BME280;8335;42.646;23.380;2023-02-17T00:21:10;142340.69;;;2.94;72.23
8280;BME280;8335;42.646;23.380;2023-02-17T00:23:37;142370.31;;;3.07;71.13
8280;BME280;8335;42.646;23.380;2023-02-17T00:26:04;142366.59;;;3.05;71.34
8280;BME280;8335;42.646;23.380;2023-02-17T00:28:31;142365.38;;;3.04;71.03
8280;BME280;8335;42.646;23.380;2023-02-17T00:30:58;142377.75;;;3.10;70.89
8280;BME280;8335;42.646;23.380;2023-02-17T00:33:26;142376.50;;;3.09;71.29
8280;BME280;8335;42.646;23.380;2023-02-17T00:35:52;142346.84;;;2.97;71.59
8280;BME280;8335;42.646;23.380;2023-02-17T00:38:19;142353.00;;;2.99;71.90
8280;BME280;8335;42.646;23.380;2023-02-17T00:40:46;142361.69;;;3.03;71.23
8280;BME280;8335;42.646;23.380;2023-02-17T00:43:13;142356.75;;;3.01;71.19
8280;BME280;8335;42.646;23.380;2023-02-17T00:45:39;142355.53;;;3.00;71.38
8280;BME280;8335;42.646;23.380;2023-02-17T00:48:06;142360.44;;;3.02;70.88
8280;BME280;8335;42.646;23.380;2023-02-17T00:50:34;142354.25;;;3.00;70.87
8280;BME280;8335;42.646;23.380;2023-02-17T00:53:01;142339.47;;;2.94;71.81
8280;BME280;8335;42.646;23.380;2023-02-17T00:55:28;142334.50;;;2.92;71.70
8280;BME280;8335;42.646;23.380;2023-02-17T00:57:54;142322.16;;;2.87;72.44
8280;BME280;8335;42.646;23.380;2023-02-17T01:00:21;142309.81;;;2.82;72.81
8280;BME280;8335;42.646;23.380;2023-02-17T01:02:48;142299.91;;;2.78;72.23
8280;BME280;8335;42.646;23.380;2023-02-17T01:05:15;142278.91;;;2.69;72.92
8280;BME280;8335;42.646;23.380;2023-02-17T01:07:44;142240.66;;;2.53;73.31
8280;BME280;8335;42.646;23.380;2023-02-17T01:10:11;142223.38;;;2.46;73.72
8280;BME280;8335;42.646;23.380;2023-02-17T01:12:38;142197.44;;;2.35;73.60
8280;BME280;8335;42.646;23.380;2023-02-17T01:15:05;142191.28;;;2.33;73.92
8280;BME280;8335;42.646;23.380;2023-02-17T01:17:32;142198.69;;;2.36;74.20
8280;BME280;8335;42.646;23.380;2023-02-17T01:19:59;142203.63;;;2.38;74.63
8280;BME280;8335;42.646;23.380;2023-02-17T01:22:26;142212.25;;;2.41;74.84
8280;BME280;8335;42.646;23.380;2023-02-17T01:24:54;142228.28;;;2.48;73.35
8280;BME280;8335;42.646;23.380;2023-02-17T01:27:21;142238.19;;;2.52;73.58
8280;BME280;8335;42.646;23.380;2023-02-17T01:29:48;142230.75;;;2.49;74.09
8280;BME280;8335;42.646;23.380;2023-02-17T01:32:14;142261.63;;;2.62;73.39
8280;BME280;8335;42.646;23.380;2023-02-17T01:34:41;142251.78;;;2.58;73.69
8280;BME280;8335;42.646;23.380;2023-02-17T01:37:08;142249.28;;;2.57;74.63
8280;BME280;8335;42.646;23.380;2023-02-17T01:39:35;142267.78;;;2.64;73.46
8280;BME280;8335;42.646;23.380;2023-02-17T01:42:03;142253.03;;;2.58;74.45
8280;BME280;8335;42.646;23.380;2023-02-17T01:44:31;142244.34;;;2.55;74.51
8280;BME280;8335;42.646;23.380;2023-02-17T01:46:58;142234.50;;;2.51;74.86
8280;BME280;8335;42.646;23.380;2023-02-17T01:49:30;142235.72;;;2.51;74.43
8280;BME280;8335;42.646;23.380;2023-02-17T01:52:03;142232.00;;;2.49;74.81
8280;BME280;8335;42.646;23.380;2023-02-17T01:54:35;142233.28;;;2.50;75.21
8280;BME280;8335;42.646;23.380;2023-02-17T01:57:05;142227.06;;;2.47;75.17
8280;BME280;8335;42.646;23.380;2023-02-17T01:59:31;142203.63;;;2.38;74.92
8280;BME280;8335;42.646;23.380;2023-02-17T02:02:01;142139.44;;;2.11;75.90
8280;BME280;8335;42.646;23.380;2023-02-17T02:04:32;142108.56;;;1.99;77.01
8280;BME280;8335;42.646;23.380;2023-02-17T02:06:59;142078.97;;;1.86;76.97
8280;BME280;8335;42.646;23.380;2023-02-17T02:09:30;142087.59;;;1.90;77.35
8280;BME280;8335;42.646;23.380;2023-02-17T02:11:58;142082.66;;;1.88;76.94
8280;BME280;8335;42.646;23.380;2023-02-17T02:14:27;142048.13;;;1.74;78.29
8280;BME280;8335;42.646;23.380;2023-02-17T02:17:01;142035.78;;;1.69;77.70
8280;BME280;8335;42.646;23.380;2023-02-17T02:19:55;142045.66;;;1.73;78.37
8280;BME280;8335;42.646;23.380;2023-02-17T02:22:51;142056.75;;;1.77;78.37
8280;BME280;8335;42.646;23.380;2023-02-17T02:25:37;142064.16;;;1.80;78.52
8280;BME280;8335;42.646;23.380;2023-02-17T02:28:19;142072.78;;;1.84;78.71
8280;BME280;8335;42.646;23.380;2023-02-17T02:31:06;142067.88;;;1.82;78.80
8280;BME280;8335;42.646;23.380;2023-02-17T02:33:42;142064.16;;;1.80;78.73
8280;BME280;8335;42.646;23.380;2023-02-17T02:36:17;142064.16;;;1.80;79.58
8280;BME280;8335;42.646;23.380;2023-02-17T02:38:50;142054.28;;;1.76;79.52
8280;BME280;8335;42.646;23.380;2023-02-17T02:41:20;142071.56;;;1.83;79.91
8280;BME280;8335;42.646;23.380;2023-02-17T02:43:48;142049.34;;;1.74;80.31
8280;BME280;8335;42.646;23.380;2023-02-17T02:46:15;142069.09;;;1.82;80.38
8280;BME280;8335;42.646;23.380;2023-02-17T02:48:44;142064.16;;;1.80;80.10
8280;BME280;8335;42.646;23.380;2023-02-17T02:51:20;142051.81;;;1.75;80.41
8280;BME280;8335;42.646;23.380;2023-02-17T02:54:02;142040.69;;;1.71;80.66
8280;BME280;8335;42.646;23.380;2023-02-17T02:56:40;142035.78;;;1.69;80.70
8280;BME280;8335;42.646;23.380;2023-02-17T02:59:19;142029.63;;;1.66;80.40
8280;BME280;8335;42.646;23.380;2023-02-17T03:01:54;142025.94;;;1.64;81.43
8280;BME280;8335;42.646;23.380;2023-02-17T03:04:29;142030.84;;;1.67;81.54
8280;BME280;8335;42.646;23.380;2023-02-17T03:07:04;141985.19;;;1.48;80.92
8280;BME280;8335;42.646;23.380;2023-02-17T03:09:32;142060.47;;;1.79;81.57
8280;BME280;8335;42.646;23.380;2023-02-17T03:12:00;142054.28;;;1.76;80.74
8280;BME280;8335;42.646;23.380;2023-02-17T03:14:27;142064.16;;;1.80;81.42
8280;BME280;8335;42.646;23.380;2023-02-17T03:16:54;142069.09;;;1.82;81.08
8280;BME280;8335;42.646;23.380;2023-02-17T03:19:22;142072.78;;;1.84;81.05
8280;BME280;8335;42.646;23.380;2023-02-17T03:21:53;142041.94;;;1.71;80.86
8280;BME280;8335;42.646;23.380;2023-02-17T03:24:21;142051.81;;;1.75;81.66
8280;BME280;8335;42.646;23.380;2023-02-17T03:26:47;142051.81;;;1.75;81.15
8280;BME280;8335;42.646;23.380;2023-02-17T03:29:14;142044.44;;;1.72;81.97
8280;BME280;8335;42.646;23.380;2023-02-17T03:31:41;142043.19;;;1.72;82.00
8280;BME280;8335;42.646;23.380;2023-02-17T03:34:08;142054.28;;;1.76;82.29
8280;BME280;8335;42.646;23.380;2023-02-17T03:36:35;142054.28;;;1.76;81.99
8280;BME280;8335;42.646;23.380;2023-02-17T03:39:03;142060.47;;;1.79;82.09
8280;BME280;8335;42.646;23.380;2023-02-17T03:41:29;142056.75;;;1.77;81.30
8280;BME280;8335;42.646;23.380;2023-02-17T03:43:56;142054.28;;;1.76;81.82
8280;BME280;8335;42.646;23.380;2023-02-17T03:46:23;142051.81;;;1.75;82.08
8280;BME280;8335;42.646;23.380;2023-02-17T03:48:50;142059.19;;;1.78;82.32
8280;BME280;8335;42.646;23.380;2023-02-17T03:51:18;142074.00;;;1.84;82.00
8280;BME280;8335;42.646;23.380;2023-02-17T03:53:45;142060.47;;;1.79;81.42
8280;BME280;8335;42.646;23.380;2023-02-17T03:56:13;142053.06;;;1.76;80.99
8280;BME280;8335;42.646;23.380;2023-02-17T03:58:41;142066.63;;;1.81;81.40
8280;BME280;8335;42.646;23.380;2023-02-17T04:01:10;142009.91;;;1.58;81.47
8280;BME280;8335;42.646;23.380;2023-02-17T04:03:37;142012.34;;;1.59;81.33
8280;BME280;8335;42.646;23.380;2023-02-17T04:06:05;142066.63;;;1.81;81.61
8280;BME280;8335;42.646;23.380;2023-02-17T04:08:32;142066.63;;;1.81;81.78
8280;BME280;8335;42.646;23.380;2023-02-17T04:11:00;142070.31;;;1.83;81.69
8280;BME280;8335;42.646;23.380;2023-02-17T04:13:29;142050.59;;;1.75;82.04
8280;BME280;8335;42.646;23.380;2023-02-17T04:15:55;142062.94;;;1.80;82.17
8280;BME280;8335;42.646;23.380;2023-02-17T04:18:22;142061.72;;;1.79;81.98
8280;BME280;8335;42.646;23.380;2023-02-17T04:20:50;142016.03;;;1.60;81.83
8280;BME280;8335;42.646;23.380;2023-02-17T04:23:17;142054.28;;;1.76;82.57
8280;BME280;8335;42.646;23.380;2023-02-17T04:25:44;142064.16;;;1.80;82.94
8280;BME280;8335;42.646;23.380;2023-02-17T04:28:11;141979.03;;;1.45;81.60
8280;BME280;8335;42.646;23.380;2023-02-17T04:30:41;142039.47;;;1.70;82.36
8280;BME280;8335;42.646;23.380;2023-02-17T04:33:08;142027.16;;;1.65;83.00
8280;BME280;8335;42.646;23.380;2023-02-17T04:35:35;142030.84;;;1.67;83.13
8280;BME280;8335;42.646;23.380;2023-02-17T04:38:01;142039.47;;;1.70;83.14
8280;BME280;8335;42.646;23.380;2023-02-17T04:40:29;142046.91;;;1.73;83.70
8280;BME280;8335;42.646;23.380;2023-02-17T04:42:56;142053.06;;;1.76;83.19
8280;BME280;8335;42.646;23.380;2023-02-17T04:45:22;142061.72;;;1.79;83.25
8280;BME280;8335;42.646;23.380;2023-02-17T04:47:51;142062.94;;;1.80;83.14
8280;BME280;8335;42.646;23.380;2023-02-17T04:50:18;142080.22;;;1.87;83.06
8280;BME280;8335;42.646;23.380;2023-02-17T04:52:45;142091.28;;;1.91;82.87
8280;BME280;8335;42.646;23.380;2023-02-17T04:55:12;142093.75;;;1.92;82.52
8280;BME280;8335;42.646;23.380;2023-02-17T04:57:38;142085.13;;;1.89;82.71
8280;BME280;8335;42.646;23.380;2023-02-17T05:00:06;142080.22;;;1.87;82.82
8280;BME280;8335;42.646;23.380;2023-02-17T05:02:34;142097.50;;;1.94;82.14
8280;BME280;8335;42.646;23.380;2023-02-17T05:05:02;142099.94;;;1.95;82.71
8280;BME280;8335;42.646;23.380;2023-02-17T05:07:29;142093.75;;;1.92;82.47
8280;BME280;8335;42.646;23.380;2023-02-17T05:09:56;142088.81;;;1.90;82.27
8280;BME280;8335;42.646;23.380;2023-02-17T05:12:23;142043.19;;;1.72;83.08
8280;BME280;8335;42.646;23.380;2023-02-17T05:14:49;142029.63;;;1.66;83.94
8280;BME280;8335;42.646;23.380;2023-02-17T05:17:16;142044.44;;;1.72;83.60
8280;BME280;8335;42.646;23.380;2023-02-17T05:19:43;142072.78;;;1.84;82.53
8280;BME280;8335;42.646;23.380;2023-02-17T05:22:11;142074.00;;;1.84;83.03
8280;BME280;8335;42.646;23.380;2023-02-17T05:24:38;142040.69;;;1.71;83.19
8280;BME280;8335;42.646;23.380;2023-02-17T05:27:05;142035.78;;;1.69;84.02
8280;BME280;8335;42.646;23.380;2023-02-17T05:29:32;142053.06;;;1.76;83.31
8280;BME280;8335;42.646;23.380;2023-02-17T05:31:59;142072.78;;;1.84;82.22
8280;BME280;8335;42.646;23.380;2023-02-17T05:34:25;142051.81;;;1.75;82.54
8280;BME280;8335;42.646;23.380;2023-02-17T05:36:52;142075.25;;;1.85;82.42
8280;BME280;8335;42.646;23.380;2023-02-17T05:39:20;142083.91;;;1.88;82.55
8280;BME280;8335;42.646;23.380;2023-02-17T05:41:47;142102.41;;;1.96;82.50
8280;BME280;8335;42.646;23.380;2023-02-17T05:44:14;142116.00;;;2.02;82.09
8280;BME280;8335;42.646;23.380;2023-02-17T05:46:41;142120.91;;;2.04;81.80
8280;BME280;8335;42.646;23.380;2023-02-17T05:49:07;142138.19;;;2.11;81.79
8280;BME280;8335;42.646;23.380;2023-02-17T05:51:34;142169.06;;;2.24;81.12
8280;BME280;8335;42.646;23.380;2023-02-17T05:54:01;142194.97;;;2.34;81.25
8280;BME280;8335;42.646;23.380;2023-02-17T05:56:29;142198.69;;;2.36;80.36
8280;BME280;8335;42.646;23.380;2023-02-17T05:58:56;142243.13;;;2.54;80.13
8280;BME280;8335;42.646;23.380;2023-02-17T06:01:25;142276.47;;;2.68;78.92
8280;BME280;8335;42.646;23.380;2023-02-17T06:03:52;142306.13;;;2.80;78.97
8280;BME280;8335;42.646;23.380;2023-02-17T06:06:19;142309.81;;;2.82;77.88
8280;BME280;8335;42.646;23.380;2023-02-17T06:08:45;142390.09;;;3.15;77.13
8280;BME280;8335;42.646;23.380;2023-02-17T06:11:12;142448.16;;;3.39;76.81
8280;BME280;8335;42.646;23.380;2023-02-17T06:13:40;142585.34;;;3.95;74.66
8280;BME280;8335;42.646;23.380;2023-02-17T06:16:07;142685.50;;;4.36;72.10
8280;BME280;8335;42.646;23.380;2023-02-17T06:18:34;142747.31;;;4.62;70.62
8280;BME280;8335;42.646;23.380;2023-02-17T06:21:00;142819.06;;;4.91;69.09
8280;BME280;8335;42.646;23.380;2023-02-17T06:23:27;142888.34;;;5.20;67.62
8280;BME280;8335;42.646;23.380;2023-02-17T06:25:54;142953.94;;;5.47;66.24
8280;BME280;8335;42.646;23.380;2023-02-17T06:28:21;143020.81;;;5.74;65.42
8280;BME280;8335;42.646;23.380;2023-02-17T06:30:49;143116.19;;;6.14;64.01
8280;BME280;8335;42.646;23.380;2023-02-17T06:33:16;143131.06;;;6.20;62.31
8280;BME280;8335;42.646;23.380;2023-02-17T06:35:47;143150.88;;;6.28;60.76
8280;BME280;8335;42.646;23.380;2023-02-17T06:38:14;143294.63;;;6.87;60.54
8280;BME280;8335;42.646;23.380;2023-02-17T06:40:41;143526.44;;;7.82;56.94
8280;BME280;8335;42.646;23.380;2023-02-17T06:43:07;143727.50;;;8.65;53.44
8280;BME280;8335;42.646;23.380;2023-02-17T06:45:34;143988.28;;;9.72;51.39
8280;BME280;8335;42.646;23.380;2023-02-17T06:48:03;144175.91;;;10.48;47.26
8280;BME280;8335;42.646;23.380;2023-02-17T06:50:29;144373.66;;;11.29;44.84
8280;BME280;8335;42.646;23.380;2023-02-17T06:52:56;144527.94;;;11.93;43.79
8280;BME280;8335;42.646;23.380;2023-02-17T06:55:23;144668.63;;;12.50;42.38
8280;BME280;8335;42.646;23.380;2023-02-17T06:57:50;144785.66;;;12.98;40.88
8280;BME280;8335;42.646;23.380;2023-02-17T07:00:17;144864.22;;;13.30;40.05
8280;BME280;8335;42.646;23.380;2023-02-17T07:02:44;144900.34;;;13.45;39.62
8280;BME280;8335;42.646;23.380;2023-02-17T07:05:12;145023.72;;;13.95;38.84
8280;BME280;8335;42.646;23.380;2023-02-17T07:07:39;145145.88;;;14.45;38.50
8280;BME280;8335;42.646;23.380;2023-02-17T07:10:07;145281.88;;;15.01;37.42
8280;BME280;8335;42.646;23.380;2023-02-17T07:12:34;145420.38;;;15.57;35.93
8280;BME280;8335;42.646;23.380;2023-02-17T07:15:00;145506.50;;;15.92;35.38
8280;BME280;8335;42.646;23.380;2023-02-17T07:17:27;145602.69;;;16.32;34.85
8280;BME280;8335;42.646;23.380;2023-02-17T07:19:54;145696.38;;;16.70;33.80
8280;BME280;8335;42.646;23.380;2023-02-17T07:22:22;145590.19;;;16.27;33.87
8280;BME280;8335;42.646;23.380;2023-02-17T07:24:51;145596.44;;;16.29;34.45
8280;BME280;8335;42.646;23.380;2023-02-17T07:27:18;145696.38;;;16.70;33.94
8280;BME280;8335;42.646;23.380;2023-02-17T07:29:44;145767.56;;;16.99;33.11
8280;BME280;8335;42.646;23.380;2023-02-17T07:32:11;145887.53;;;17.48;32.42
8280;BME280;8335;42.646;23.380;2023-02-17T07:34:38;145951.34;;;17.74;31.54
8280;BME280;8335;42.646;23.380;2023-02-17T07:37:05;146023.84;;;18.03;31.32
8280;BME280;8335;42.646;23.380;2023-02-17T07:39:34;146163.94;;;18.60;30.59
8280;BME280;8335;42.646;23.380;2023-02-17T07:42:00;146200.25;;;18.75;29.67
8280;BME280;8335;42.646;23.380;2023-02-17T07:44:29;146188.97;;;18.70;29.29
8280;BME280;8335;42.646;23.380;2023-02-17T07:46:56;146264.06;;;19.01;29.33
8280;BME280;8335;42.646;23.380;2023-02-17T07:49:23;146301.59;;;19.16;29.17
8280;BME280;8335;42.646;23.380;2023-02-17T07:51:49;146347.88;;;19.35;28.98
8280;BME280;8335;42.646;23.380;2023-02-17T07:54:16;146401.75;;;19.57;28.64
8280;BME280;8335;42.646;23.380;2023-02-17T07:56:44;146377.94;;;19.47;28.38
8280;BME280;8335;42.646;23.380;2023-02-17T07:59:12;146362.91;;;19.41;28.78
8280;BME280;8335;42.646;23.380;2023-02-17T08:01:40;146311.59;;;19.20;28.15
8280;BME280;8335;42.646;23.380;2023-02-17T08:04:07;146312.84;;;19.21;28.80
8280;BME280;8335;42.646;23.380;2023-02-17T08:06:33;146342.88;;;19.33;29.18
8280;BME280;8335;42.646;23.380;2023-02-17T08:09:00;146370.44;;;19.44;28.78
8280;BME280;8335;42.646;23.380;2023-02-17T08:11:45;146385.47;;;19.50;29.02
8280;BME280;8335;42.646;23.380;2023-02-17T08:14:30;146433.03;;;19.70;28.46
8280;BME280;8335;42.646;23.380;2023-02-17T08:16:57;146449.31;;;19.76;28.36
8280;BME280;8335;42.646;23.380;2023-02-17T08:19:24;146519.44;;;20.05;28.54
8280;BME280;8335;42.646;23.380;2023-02-17T08:21:51;146525.72;;;20.08;28.64
8280;BME280;8335;42.646;23.380;2023-02-17T08:24:18;146508.19;;;20.00;28.56
8280;BME280;8335;42.646;23.380;2023-02-17T08:26:47;146530.72;;;20.10;28.12
8280;BME280;8335;42.646;23.380;2023-02-17T08:29:15;146569.53;;;20.25;27.75
8280;BME280;8335;42.646;23.380;2023-02-17T08:31:42;146653.50;;;20.59;27.73
8280;BME280;8335;42.646;23.380;2023-02-17T08:34:11;146657.25;;;20.61;27.71
8280;BME280;8335;42.646;23.380;2023-02-17T08:36:38;146672.28;;;20.67;27.11
8280;BME280;8335;42.646;23.380;2023-02-17T08:39:09;146649.75;;;20.58;26.91
8280;BME280;8335;42.646;23.380;2023-02-17T08:41:37;146728.66;;;20.90;26.46
8280;BME280;8335;42.646;23.380;2023-02-17T08:44:09;146746.19;;;20.97;26.77
8280;BME280;8335;42.646;23.380;2023-02-17T08:46:36;146781.28;;;21.11;26.75
8280;BME280;8335;42.646;23.380;2023-02-17T08:49:04;146830.22;;;21.31;26.34
8280;BME280;8335;42.646;23.380;2023-02-17T08:51:31;146890.34;;;21.56;26.25
8280;BME280;8335;42.646;23.380;2023-02-17T08:53:59;146974.38;;;21.90;25.89
8280;BME280;8335;42.646;23.380;2023-02-17T08:56:27;147019.56;;;22.08;25.38
8280;BME280;8335;42.646;23.380;2023-02-17T08:58:55;147088.56;;;22.36;24.88
8280;BME280;8335;42.646;23.380;2023-02-17T09:01:23;147128.69;;;22.52;24.69
8280;BME280;8335;42.646;23.380;2023-02-17T09:03:52;147182.59;;;22.74;24.66
8280;BME280;8335;42.646;23.380;2023-02-17T09:06:20;147225.28;;;22.92;24.25
8280;BME280;8335;42.646;23.380;2023-02-17T09:08:47;147259.16;;;23.05;23.86
8280;BME280;8335;42.646;23.380;2023-02-17T09:11:15;147168.78;;;22.69;24.29
8280;BME280;8335;42.646;23.380;2023-02-17T09:13:44;147157.50;;;22.64;24.41
8280;BME280;8335;42.646;23.380;2023-02-17T09:16:11;147147.47;;;22.60;24.62
8280;BME280;8335;42.646;23.380;2023-02-17T09:18:39;147198.91;;;22.81;24.43
8280;BME280;8335;42.646;23.380;2023-02-17T09:21:07;147219.03;;;22.89;23.89
8280;BME280;8335;42.646;23.380;2023-02-17T09:23:34;147224.03;;;22.91;24.01
8280;BME280;8335;42.646;23.380;2023-02-17T09:26:01;147160.03;;;22.65;24.28
8280;BME280;8335;42.646;23.380;2023-02-17T09:28:30;147040.88;;;22.17;24.55
8280;BME280;8335;42.646;23.380;2023-02-17T09:30:57;146994.41;;;21.98;25.09
8280;BME280;8335;42.646;23.380;2023-02-17T09:33:24;146950.56;;;21.80;25.19
8280;BME280;8335;42.646;23.380;2023-02-17T09:35:52;146936.75;;;21.75;25.50
8280;BME280;8335;42.646;23.380;2023-02-17T09:38:19;146931.75;;;21.73;25.54
8280;BME280;8335;42.646;23.380;2023-02-17T09:40:47;146954.31;;;21.82;25.25
8280;BME280;8335;42.646;23.380;2023-02-17T09:43:16;146939.25;;;21.76;25.22
8280;BME280;8335;42.646;23.380;2023-02-17T09:45:47;146890.34;;;21.56;25.21
8280;BME280;8335;42.646;23.380;2023-02-17T09:48:17;146904.16;;;21.61;25.06
8280;BME280;8335;42.646;23.380;2023-02-17T09:50:49;146880.38;;;21.52;25.68
8280;BME280;8335;42.646;23.380;2023-02-17T09:53:25;146857.75;;;21.42;25.16
8280;BME280;8335;42.646;23.380;2023-02-17T09:55:57;146697.31;;;20.77;25.81
8280;BME280;8335;42.646;23.380;2023-02-17T09:58:31;146697.31;;;20.77;25.94
8280;BME280;8335;42.646;23.380;2023-02-17T10:01:02;146615.94;;;20.44;26.04
8280;BME280;8335;42.646;23.380;2023-02-17T10:03:33;146552.00;;;20.18;26.90
8280;BME280;8335;42.646;23.380;2023-02-17T10:06:08;146674.78;;;20.68;26.75
8280;BME280;8335;42.646;23.380;2023-02-17T10:08:43;146747.44;;;20.98;25.48
8280;BME280;8335;42.646;23.380;2023-02-17T10:11:17;146686.09;;;20.73;23.70
8280;BME280;8335;42.646;23.380;2023-02-17T10:13:49;146536.97;;;20.12;23.89
8280;BME280;8335;42.646;23.380;2023-02-17T10:16:21;146515.69;;;20.03;23.58
8280;BME280;8335;42.646;23.380;2023-02-17T10:18:54;146496.91;;;19.96;23.25
8280;BME280;8335;42.646;23.380;2023-02-17T10:21:28;146534.47;;;20.11;23.63
8280;BME280;8335;42.646;23.380;2023-02-17T10:23:58;146590.81;;;20.34;23.04
8280;BME280;8335;42.646;23.380;2023-02-17T10:26:44;146496.91;;;19.96;23.62
8280;BME280;8335;42.646;23.380;2023-02-17T10:29:21;146414.28;;;19.62;23.65
8280;BME280;8335;42.646;23.380;2023-02-17T10:32:04;146400.44;;;19.57;23.90
8280;BME280;8335;42.646;23.380;2023-02-17T10:34:37;146390.47;;;19.52;23.43
8280;BME280;8335;42.646;23.380;2023-02-17T10:37:13;146510.69;;;20.01;23.49
8280;BME280;8335;42.646;23.380;2023-02-17T10:39:46;146463.09;;;19.82;22.89
8280;BME280;8335;42.646;23.380;2023-02-17T10:42:19;146515.69;;;20.03;22.60
8280;BME280;8335;42.646;23.380;2023-02-17T10:44:48;146439.34;;;19.72;23.00
8280;BME280;8335;42.646;23.380;2023-02-17T10:47:15;146409.28;;;19.60;23.85
8280;BME280;8335;42.646;23.380;2023-02-17T10:49:44;146424.31;;;19.66;23.20
8280;BME280;8335;42.646;23.380;2023-02-17T10:52:14;146475.63;;;19.87;23.62
8280;BME280;8335;42.646;23.380;2023-02-17T10:54:47;146535.72;;;20.12;23.42
8280;BME280;8335;42.646;23.380;2023-02-17T10:57:16;146533.22;;;20.11;23.41
8280;BME280;8335;42.646;23.380;2023-02-17T10:59:46;146518.19;;;20.04;23.29
8280;BME280;8335;42.646;23.380;2023-02-17T11:02:18;146560.78;;;20.22;23.56
8280;BME280;8335;42.646;23.380;2023-02-17T11:04:46;146466.84;;;19.84;23.32
8280;BME280;8335;42.646;23.380;2023-02-17T11:07:15;146666.03;;;20.65;22.97
8280;BME280;8335;42.646;23.380;2023-02-17T11:09:49;146610.84;;;20.42;23.46
8280;BME280;8335;42.646;23.380;2023-02-17T11:12:20;146574.53;;;20.27;22.99
8280;BME280;8335;42.646;23.380;2023-02-17T11:14:49;146633.47;;;20.51;23.35
8280;BME280;8335;42.646;23.380;2023-02-17T11:17:23;146617.19;;;20.45;23.21
8280;BME280;8335;42.646;23.380;2023-02-17T11:19:58;146554.50;;;20.19;23.34
8280;BME280;8335;42.646;23.380;2023-02-17T11:22:34;146533.22;;;20.11;23.47
8280;BME280;8335;42.646;23.380;2023-02-17T11:25:06;146575.78;;;20.28;24.11
8280;BME280;8335;42.646;23.380;2023-02-17T11:27:33;146529.47;;;20.09;23.79
8280;BME280;8335;42.646;23.380;2023-02-17T11:30:08;146465.59;;;19.83;24.36
8280;BME280;8335;42.646;23.380;2023-02-17T11:32:39;146443.09;;;19.74;24.45
8280;BME280;8335;42.646;23.380;2023-02-17T11:35:22;146400.44;;;19.57;24.31
8280;BME280;8335;42.646;23.380;2023-02-17T11:37:51;146341.63;;;19.33;24.41
8280;BME280;8335;42.646;23.380;2023-02-17T11:40:26;146232.78;;;18.88;24.62
8280;BME280;8335;42.646;23.380;2023-02-17T11:42:57;146219.00;;;18.83;25.18
8280;BME280;8335;42.646;23.380;2023-02-17T11:45:28;146076.38;;;18.25;26.06
8280;BME280;8335;42.646;23.380;2023-02-17T11:48:10;146116.38;;;18.41;26.18
8280;BME280;8335;42.646;23.380;2023-02-17T11:50:45;146097.63;;;18.33;26.16
8280;BME280;8335;42.646;23.380;2023-02-17T11:53:26;146046.34;;;18.12;26.93
8280;BME280;8335;42.646;23.380;2023-02-17T11:56:05;146020.13;;;18.02;27.13
8280;BME280;8335;42.646;23.380;2023-02-17T11:58:50;145975.09;;;17.83;27.20
8280;BME280;8335;42.646;23.380;2023-02-17T12:01:36;145927.53;;;17.64;26.91
8280;BME280;8335;42.646;23.380;2023-02-17T12:04:23;145876.31;;;17.43;27.40
8280;BME280;8335;42.646;23.380;2023-02-17T12:06:59;145873.78;;;17.42;27.67
8280;BME280;8335;42.646;23.380;2023-02-17T12:09:35;145805.06;;;17.14;28.24
8280;BME280;8335;42.646;23.380;2023-02-17T12:12:12;145801.31;;;17.13;28.60
8280;BME280;8335;42.646;23.380;2023-02-17T12:14:57;145782.56;;;17.05;28.53
8280;BME280;8335;42.646;23.380;2023-02-17T12:17:34;145733.84;;;16.85;29.05
8280;BME280;8335;42.646;23.380;2023-02-17T12:20:13;145716.34;;;16.78;29.26
8280;BME280;8335;42.646;23.380;2023-02-17T12:22:59;145636.41;;;16.45;29.26
8280;BME280;8335;42.646;23.380;2023-02-17T12:25:30;145581.47;;;16.23;29.30
8280;BME280;8335;42.646;23.380;2023-02-17T12:28:08;145541.47;;;16.07;29.86
8280;BME280;8335;42.646;23.380;2023-02-17T12:30:48;145593.91;;;16.28;29.92
8280;BME280;8335;42.646;23.380;2023-02-17T12:33:35;145615.19;;;16.37;30.04
8280;BME280;8335;42.646;23.380;2023-02-17T12:36:08;145593.91;;;16.28;29.86
8280;BME280;8335;42.646;23.380;2023-02-17T12:38:38;145593.91;;;16.28;30.13
8280;BME280;8335;42.646;23.380;2023-02-17T12:41:10;145524.00;;;16.00;30.06
8280;BME280;8335;42.646;23.380;2023-02-17T12:43:42;145547.75;;;16.09;30.11
8280;BME280;8335;42.646;23.380;2023-02-17T12:46:11;145475.34;;;15.80;30.49
8280;BME280;8335;42.646;23.380;2023-02-17T12:48:44;145516.53;;;15.96;30.69
8280;BME280;8335;42.646;23.380;2023-02-17T12:51:17;145522.75;;;15.99;30.37
8280;BME280;8335;42.646;23.380;2023-02-17T12:53:49;145525.25;;;16.00;30.56
8280;BME280;8335;42.646;23.380;2023-02-17T12:59:30;145535.25;;;16.04;30.42
8280;BME280;8335;42.646;23.380;2023-02-17T13:02:00;145562.72;;;16.15;30.13
8280;BME280;8335;42.646;23.380;2023-02-17T13:04:28;145502.78;;;15.91;30.54
8280;BME280;8335;42.646;23.380;2023-02-17T13:07:15;145507.75;;;15.93;30.31
8280;BME280;8335;42.646;23.380;2023-02-17T13:09:44;145357.97;;;15.32;30.35
8280;BME280;8335;42.646;23.380;2023-02-17T13:12:32;145479.09;;;15.81;30.28
8280;BME280;8335;42.646;23.380;2023-02-17T13:15:02;145459.13;;;15.73;30.50
8280;BME280;8335;42.646;23.380;2023-02-17T13:17:32;145445.38;;;15.67;30.85
8280;BME280;8335;42.646;23.380;2023-02-17T13:20:23;145401.63;;;15.50;31.10
8280;BME280;8335;42.646;23.380;2023-02-17T13:23:02;145412.88;;;15.54;31.27